Valle Di Andalusia — IBTJ — position and weather

sailwx.info

Track history (hours):
 
Tides and Currents Weather Stations Pressure Air Temp Water Temp Dewpoint Dewpoint Depression Visibility Wind Speed Wind Dir Waves Ship Positions

Valle Di Andalusia

Last reported at 2016-May-04 04:29 UTC. Time now 2016-May-06 09:17 UTC.
Position N 36°48' E 013°45'.

Length 176 m; draft 9 m.

Type: Ship (hazmat cat D). MMSI: 247046200.

Date/timePositionNaut miles runAvg speedWind from/ knotsBaromVisibWave heightAir tempDewpointWater temp
2016-May-04 04:29N 36°48' E 013°45'1111.5
2016-May-04 03:33N 36°45' E 013°57'1211.6
2016-May-04 02:33N 36°43' E 014°12'1111.4
2016-May-04 01:33N 36°40' E 014°25'1111.3
2016-May-04 00:32N 36°38' E 014°39'47410.5
2016-May-02 03:33N 37°39' E 024°29'1212.5
2016-May-02 02:33N 37°51' E 024°34'1312.6
2016-May-02 01:32N 38°03' E 024°40'251 9.9
2016-May-01 00:15N 40°47' E 028°46'912.9
2016-Apr-30 23:32N 40°52' E 028°56'6 5.6
2016-Apr-30 22:23N 40°58' E 028°59'45911.0
2016-Apr-29 04:33N 43°55' E 038°33'1212.5
2016-Apr-29 03:33N 43°59' E 038°49'1211.8
2016-Apr-29 02:33N 44°04' E 039°04'2 1.7
2016-Apr-29 01:32N 44°05' E 039°04'0 0.0
2016-Apr-29 00:32N 44°05' E 039°04'0 0.0
2016-Apr-28 23:32N 44°05' E 039°04'0 0.0
2016-Apr-28 22:31N 44°05' E 039°04'0 0.0
2016-Apr-28 21:31N 44°05' E 039°04'0 0.0
2016-Apr-28 20:33N 44°05' E 039°04'0 0.0
2016-Apr-28 19:33N 44°05' E 039°04'0 0.0
2016-Apr-28 18:32N 44°05' E 039°04'0 0.0
2016-Apr-28 17:32N 44°05' E 039°04'0 0.0
2016-Apr-28 16:32N 44°05' E 039°04'0 0.0
2016-Apr-28 15:31N 44°05' E 039°04'0 0.0
2016-Apr-28 14:31N 44°05' E 039°04'0 0.0
2016-Apr-28 13:33N 44°05' E 039°04'0 0.0
2016-Apr-28 12:33N 44°05' E 039°04'0 0.0
2016-Apr-28 11:32N 44°05' E 039°04'0 0.0
2016-Apr-28 10:32N 44°05' E 039°04'0 0.0
2016-Apr-28 09:31N 44°05' E 039°04'0 0.0
2016-Apr-28 08:28N 44°05' E 039°04'0 0.0
2016-Apr-28 07:31N 44°05' E 039°04'0 0.0
2016-Apr-28 06:33N 44°05' E 039°04'0 0.0
2016-Apr-28 05:33N 44°05' E 039°04'0 0.0
2016-Apr-28 04:32N 44°05' E 039°04'0 0.0
2016-Apr-28 03:32N 44°05' E 039°04'0 0.0
2016-Apr-28 02:31N 44°05' E 039°04'0 0.0
2016-Apr-28 01:31N 44°05' E 039°04'0 0.0
2016-Apr-28 00:31N 44°05' E 039°04'0 0.0
2016-Apr-27 23:33N 44°05' E 039°04'0 0.0
2016-Apr-27 22:33N 44°05' E 039°04'0 0.0
2016-Apr-27 21:32N 44°05' E 039°04'0 0.0
2016-Apr-27 20:32N 44°05' E 039°04'0 0.0
2016-Apr-27 19:31N 44°05' E 039°04'0 0.0
2016-Apr-27 18:31N 44°05' E 039°04'0 0.0
2016-Apr-27 17:31N 44°05' E 039°04'0 0.0
2016-Apr-27 16:33N 44°05' E 039°04'0 0.0
2016-Apr-27 15:33N 44°05' E 039°04'0 0.0
2016-Apr-27 14:32N 44°05' E 039°04'0 0.0
2016-Apr-27 13:32N 44°05' E 039°04'0 0.0
2016-Apr-27 12:31N 44°05' E 039°04'0 0.0
2016-Apr-27 11:31N 44°05' E 039°04'0 0.0
2016-Apr-27 10:31N 44°05' E 039°04'0 0.0
2016-Apr-27 09:33N 44°05' E 039°04'0 0.0
2016-Apr-27 08:33N 44°05' E 039°04'0 0.0
2016-Apr-27 07:32N 44°05' E 039°04'0 0.0
2016-Apr-27 06:29N 44°05' E 039°04'0 0.0
2016-Apr-27 05:28N 44°05' E 039°04'0 0.0
2016-Apr-27 04:33N 44°05' E 039°04'2 2.0
2016-Apr-27 03:33N 44°03' E 039°04'1 0.7
2016-Apr-27 02:33N 44°03' E 039°05'0 0.0
2016-Apr-27 01:32N 44°03' E 039°05'0 0.1
2016-Apr-27 00:32N 44°03' E 039°05'0 0.0
2016-Apr-26 23:31N 44°03' E 039°05'0 0.1
2016-Apr-26 22:31N 44°03' E 039°05'0 0.0
2016-Apr-26 21:33N 44°03' E 039°05'0 0.0
2016-Apr-26 20:33N 44°03' E 039°05'0 0.0
2016-Apr-26 19:33N 44°03' E 039°05'0 0.0
2016-Apr-26 18:32N 44°03' E 039°05'0 0.0
2016-Apr-26 17:32N 44°03' E 039°05'0 0.0
2016-Apr-26 16:31N 44°03' E 039°05'0 0.0
2016-Apr-26 15:31N 44°03' E 039°05'0 0.0
2016-Apr-26 14:33N 44°03' E 039°05'0 0.0
2016-Apr-26 13:33N 44°03' E 039°05'0 0.0
2016-Apr-26 12:32N 44°03' E 039°05'0 0.0
2016-Apr-26 11:32N 44°03' E 039°05'0 0.0
2016-Apr-26 10:32N 44°03' E 039°05'0 0.0
2016-Apr-26 09:31N 44°03' E 039°05'0 0.0
2016-Apr-26 08:31N 44°03' E 039°05'0 0.0
2016-Apr-26 07:33N 44°03' E 039°05'0 0.0
2016-Apr-26 06:33N 44°03' E 039°05'0 0.0
2016-Apr-26 05:32N 44°03' E 039°05'0 0.0
2016-Apr-26 04:29N 44°03' E 039°05'0 0.0
2016-Apr-26 03:32N 44°03' E 039°05'0 0.0
2016-Apr-26 02:31N 44°03' E 039°05'0 0.0
2016-Apr-26 01:31N 44°03' E 039°05'0 0.0
2016-Apr-26 00:33N 44°03' E 039°05'0 0.0
2016-Apr-25 23:33N 44°03' E 039°05'0 0.0
2016-Apr-25 22:32N 44°03' E 039°05'0 0.0
2016-Apr-25 21:32N 44°03' E 039°05'0 0.0
2016-Apr-25 20:32N 44°03' E 039°05'0 0.0
2016-Apr-25 19:25N 44°03' E 039°05'0 0.0
2016-Apr-25 18:31N 44°03' E 039°05'0 0.0
2016-Apr-25 17:33N 44°03' E 039°05'0 0.0
2016-Apr-25 16:33N 44°03' E 039°05'0 0.0
2016-Apr-25 15:29N 44°03' E 039°05'0 0.1
2016-Apr-25 14:32N 44°03' E 039°05'0 0.1
2016-Apr-25 13:32N 44°03' E 039°05'0 0.0
2016-Apr-25 12:31N 44°03' E 039°05'0 0.0
2016-Apr-25 11:31N 44°03' E 039°05'0 0.0
2016-Apr-25 10:33N 44°03' E 039°05'0 0.0
2016-Apr-25 09:33N 44°03' E 039°05'0 0.0
2016-Apr-25 08:32N 44°03' E 039°05'0 0.0
2016-Apr-25 07:32N 44°03' E 039°05'0 0.0
2016-Apr-25 06:31N 44°03' E 039°05'0 0.0
2016-Apr-25 05:31N 44°03' E 039°05'0 0.0
2016-Apr-25 04:31N 44°03' E 039°05'0 0.0
2016-Apr-25 03:33N 44°03' E 039°05'0 0.0
2016-Apr-25 02:33N 44°03' E 039°05'0 0.0
2016-Apr-25 01:29N 44°03' E 039°05'0 0.0
2016-Apr-25 00:29N 44°03' E 039°05'0 0.0
2016-Apr-24 23:31N 44°03' E 039°05'0 0.0
2016-Apr-24 22:31N 44°03' E 039°05'0 0.0
2016-Apr-24 21:31N 44°03' E 039°05'0 0.0
2016-Apr-24 20:33N 44°03' E 039°05'0 0.0
2016-Apr-24 19:33N 44°03' E 039°05'0 0.0
2016-Apr-24 18:32N 44°03' E 039°05'0 0.0
2016-Apr-24 17:32N 44°03' E 039°05'0 0.0
2016-Apr-24 16:31N 44°03' E 039°05'0 0.0
2016-Apr-24 15:31N 44°03' E 039°05'0 0.0
2016-Apr-24 14:34N 44°03' E 039°05'0 0.0
2016-Apr-24 13:33N 44°03' E 039°05'0 0.0
2016-Apr-24 12:33N 44°03' E 039°05'0 0.0
2016-Apr-24 11:32N 44°03' E 039°05'0 0.0
2016-Apr-24 10:32N 44°03' E 039°05'0 0.0
2016-Apr-24 09:25N 44°03' E 039°05'0 0.0
2016-Apr-24 08:31N 44°03' E 039°05'0 0.0
2016-Apr-24 07:33N 44°03' E 039°05'0 0.0
2016-Apr-24 06:33N 44°03' E 039°05'0 0.0
2016-Apr-24 05:33N 44°03' E 039°05'0 0.0
2016-Apr-24 04:32N 44°03' E 039°05'  
Track history (hours):
 
Tides and Currents Weather Stations Pressure Air Temp Water Temp Dewpoint Dewpoint Depression Visibility Wind Speed Wind Dir Waves Ship Positions

Valle Di Andalusia

Last reported at 2016-May-04 04:29 UTC. Time now 2016-May-06 09:17 UTC.
Position N 36°48' E 013°45'.

Length 176 m; draft 9 m.

Type: Ship (hazmat cat D). MMSI: 247046200.

Date/timePositionNaut miles runAvg speedWind from/ knotsBaromVisibWave heightAir tempDewpointWater temp
2016-May-04 04:29N 36°48' E 013°45'1111.5
2016-May-04 03:33N 36°45' E 013°57'1211.6
2016-May-04 02:33N 36°43' E 014°12'1111.4
2016-May-04 01:33N 36°40' E 014°25'1111.3
2016-May-04 00:32N 36°38' E 014°39'47410.5
2016-May-02 03:33N 37°39' E 024°29'1212.5
2016-May-02 02:33N 37°51' E 024°34'1312.6
2016-May-02 01:32N 38°03' E 024°40'251 9.9
2016-May-01 00:15N 40°47' E 028°46'912.9
2016-Apr-30 23:32N 40°52' E 028°56'6 5.6
2016-Apr-30 22:23N 40°58' E 028°59'45911.0
2016-Apr-29 04:33N 43°55' E 038°33'1212.5
2016-Apr-29 03:33N 43°59' E 038°49'1211.8
2016-Apr-29 02:33N 44°04' E 039°04'2 1.7
2016-Apr-29 01:32N 44°05' E 039°04'0 0.0
2016-Apr-29 00:32N 44°05' E 039°04'0 0.0
2016-Apr-28 23:32N 44°05' E 039°04'0 0.0
2016-Apr-28 22:31N 44°05' E 039°04'0 0.0
2016-Apr-28 21:31N 44°05' E 039°04'0 0.0
2016-Apr-28 20:33N 44°05' E 039°04'0 0.0
2016-Apr-28 19:33N 44°05' E 039°04'0 0.0
2016-Apr-28 18:32N 44°05' E 039°04'0 0.0
2016-Apr-28 17:32N 44°05' E 039°04'0 0.0
2016-Apr-28 16:32N 44°05' E 039°04'0 0.0
2016-Apr-28 15:31N 44°05' E 039°04'0 0.0
2016-Apr-28 14:31N 44°05' E 039°04'0 0.0
2016-Apr-28 13:33N 44°05' E 039°04'0 0.0
2016-Apr-28 12:33N 44°05' E 039°04'0 0.0
2016-Apr-28 11:32N 44°05' E 039°04'0 0.0
2016-Apr-28 10:32N 44°05' E 039°04'0 0.0
2016-Apr-28 09:31N 44°05' E 039°04'0 0.0
2016-Apr-28 08:28N 44°05' E 039°04'0 0.0
2016-Apr-28 07:31N 44°05' E 039°04'0 0.0
2016-Apr-28 06:33N 44°05' E 039°04'0 0.0
2016-Apr-28 05:33N 44°05' E 039°04'0 0.0
2016-Apr-28 04:32N 44°05' E 039°04'0 0.0
2016-Apr-28 03:32N 44°05' E 039°04'0 0.0
2016-Apr-28 02:31N 44°05' E 039°04'0 0.0
2016-Apr-28 01:31N 44°05' E 039°04'0 0.0
2016-Apr-28 00:31N 44°05' E 039°04'0 0.0
2016-Apr-27 23:33N 44°05' E 039°04'0 0.0
2016-Apr-27 22:33N 44°05' E 039°04'0 0.0
2016-Apr-27 21:32N 44°05' E 039°04'0 0.0
2016-Apr-27 20:32N 44°05' E 039°04'0 0.0
2016-Apr-27 19:31N 44°05' E 039°04'0 0.0
2016-Apr-27 18:31N 44°05' E 039°04'0 0.0
2016-Apr-27 17:31N 44°05' E 039°04'0 0.0
2016-Apr-27 16:33N 44°05' E 039°04'0 0.0
2016-Apr-27 15:33N 44°05' E 039°04'0 0.0
2016-Apr-27 14:32N 44°05' E 039°04'0 0.0
2016-Apr-27 13:32N 44°05' E 039°04'0 0.0
2016-Apr-27 12:31N 44°05' E 039°04'0 0.0
2016-Apr-27 11:31N 44°05' E 039°04'0 0.0
2016-Apr-27 10:31N 44°05' E 039°04'0 0.0
2016-Apr-27 09:33N 44°05' E 039°04'0 0.0
2016-Apr-27 08:33N 44°05' E 039°04'0 0.0
2016-Apr-27 07:32N 44°05' E 039°04'0 0.0
2016-Apr-27 06:29N 44°05' E 039°04'0 0.0
2016-Apr-27 05:28N 44°05' E 039°04'0 0.0
2016-Apr-27 04:33N 44°05' E 039°04'2 2.0
2016-Apr-27 03:33N 44°03' E 039°04'1 0.7
2016-Apr-27 02:33N 44°03' E 039°05'0 0.0
2016-Apr-27 01:32N 44°03' E 039°05'0 0.1
2016-Apr-27 00:32N 44°03' E 039°05'0 0.0
2016-Apr-26 23:31N 44°03' E 039°05'0 0.1
2016-Apr-26 22:31N 44°03' E 039°05'0 0.0
2016-Apr-26 21:33N 44°03' E 039°05'0 0.0
2016-Apr-26 20:33N 44°03' E 039°05'0 0.0
2016-Apr-26 19:33N 44°03' E 039°05'0 0.0
2016-Apr-26 18:32N 44°03' E 039°05'0 0.0
2016-Apr-26 17:32N 44°03' E 039°05'0 0.0
2016-Apr-26 16:31N 44°03' E 039°05'0 0.0
2016-Apr-26 15:31N 44°03' E 039°05'0 0.0
2016-Apr-26 14:33N 44°03' E 039°05'0 0.0
2016-Apr-26 13:33N 44°03' E 039°05'0 0.0
2016-Apr-26 12:32N 44°03' E 039°05'0 0.0
2016-Apr-26 11:32N 44°03' E 039°05'0 0.0
2016-Apr-26 10:32N 44°03' E 039°05'0 0.0
2016-Apr-26 09:31N 44°03' E 039°05'0 0.0
2016-Apr-26 08:31N 44°03' E 039°05'0 0.0
2016-Apr-26 07:33N 44°03' E 039°05'0 0.0
2016-Apr-26 06:33N 44°03' E 039°05'0 0.0
2016-Apr-26 05:32N 44°03' E 039°05'0 0.0
2016-Apr-26 04:29N 44°03' E 039°05'0 0.0
2016-Apr-26 03:32N 44°03' E 039°05'0 0.0
2016-Apr-26 02:31N 44°03' E 039°05'0 0.0
2016-Apr-26 01:31N 44°03' E 039°05'0 0.0
2016-Apr-26 00:33N 44°03' E 039°05'0 0.0
2016-Apr-25 23:33N 44°03' E 039°05'0 0.0
2016-Apr-25 22:32N 44°03' E 039°05'0 0.0
2016-Apr-25 21:32N 44°03' E 039°05'0 0.0
2016-Apr-25 20:32N 44°03' E 039°05'0 0.0
2016-Apr-25 19:25N 44°03' E 039°05'0 0.0
2016-Apr-25 18:31N 44°03' E 039°05'0 0.0
2016-Apr-25 17:33N 44°03' E 039°05'0 0.0
2016-Apr-25 16:33N 44°03' E 039°05'0 0.0
2016-Apr-25 15:29N 44°03' E 039°05'0 0.1
2016-Apr-25 14:32N 44°03' E 039°05'0 0.1
2016-Apr-25 13:32N 44°03' E 039°05'0 0.0
2016-Apr-25 12:31N 44°03' E 039°05'0 0.0
2016-Apr-25 11:31N 44°03' E 039°05'0 0.0
2016-Apr-25 10:33N 44°03' E 039°05'0 0.0
2016-Apr-25 09:33N 44°03' E 039°05'0 0.0
2016-Apr-25 08:32N 44°03' E 039°05'0 0.0
2016-Apr-25 07:32N 44°03' E 039°05'0 0.0
2016-Apr-25 06:31N 44°03' E 039°05'0 0.0
2016-Apr-25 05:31N 44°03' E 039°05'0 0.0
2016-Apr-25 04:31N 44°03' E 039°05'0 0.0
2016-Apr-25 03:33N 44°03' E 039°05'0 0.0
2016-Apr-25 02:33N 44°03' E 039°05'0 0.0
2016-Apr-25 01:29N 44°03' E 039°05'0 0.0
2016-Apr-25 00:29N 44°03' E 039°05'0 0.0
2016-Apr-24 23:31N 44°03' E 039°05'0 0.0
2016-Apr-24 22:31N 44°03' E 039°05'0 0.0
2016-Apr-24 21:31N 44°03' E 039°05'0 0.0
2016-Apr-24 20:33N 44°03' E 039°05'0 0.0
2016-Apr-24 19:33N 44°03' E 039°05'0 0.0
2016-Apr-24 18:32N 44°03' E 039°05'0 0.0
2016-Apr-24 17:32N 44°03' E 039°05'0 0.0
2016-Apr-24 16:31N 44°03' E 039°05'0 0.0
2016-Apr-24 15:31N 44°03' E 039°05'0 0.0
2016-Apr-24 14:34N 44°03' E 039°05'0 0.0
2016-Apr-24 13:33N 44°03' E 039°05'0 0.0
2016-Apr-24 12:33N 44°03' E 039°05'0 0.0
2016-Apr-24 11:32N 44°03' E 039°05'0 0.0
2016-Apr-24 10:32N 44°03' E 039°05'0 0.0
2016-Apr-24 09:25N 44°03' E 039°05'0 0.0
2016-Apr-24 08:31N 44°03' E 039°05'0 0.0
2016-Apr-24 07:33N 44°03' E 039°05'0 0.0
2016-Apr-24 06:33N 44°03' E 039°05'0 0.0
2016-Apr-24 05:33N 44°03' E 039°05'0 0.0
2016-Apr-24 04:32N 44°03' E 039°05'  

Dump ship's entire track history